Time;durP1;ratioP1;P1;durP2;ratioP2;P2;SDS_P1;SDS_P2;PMS_P1;PMS_P2;Temp;Humidity;BMP_temperature;BMP_pressure;BME280_temperature;BME280_humidity;BME280_pressure;Samples;Min_cycle;Max_cycle;Signal;HPM_P1;HPM_P2
2022/05/06 00:01:52;;;;;;;12.53;3.90;;;11.70;79.30;;;;;;4228781;28;20283;-82
2022/05/06 00:03:54;;;;;;;8.27;3.40;;;11.40;78.20;;;;;;4221883;28;20743;-82
2022/05/06 00:05:56;;;;;;;8.40;3.13;;;11.50;75.70;;;;;;4232018;28;20239;-82
2022/05/06 00:07:58;;;;;;;7.47;3.10;;;11.50;75.30;;;;;;4233569;28;20268;-82
2022/05/06 00:10:01;;;;;;;6.73;2.93;;;11.50;74.00;;;;;;4227026;28;20268;-81
2022/05/06 00:12:03;;;;;;;5.80;2.63;;;11.40;74.00;;;;;;4225078;28;20222;-81
2022/05/06 00:14:06;;;;;;;4.40;2.50;;;11.40;73.60;;;;;;4223938;28;20260;-82
2022/05/06 00:16:08;;;;;;;5.80;2.57;;;11.40;74.20;;;;;;4227116;28;20521;-82
2022/05/06 00:18:10;;;;;;;6.93;2.83;;;11.30;74.80;;;;;;4232297;28;20606;-82
2022/05/06 00:20:12;;;;;;;4.83;2.27;;;11.30;75.70;;;;;;4225681;28;20235;-82
2022/05/06 00:22:14;;;;;;;5.20;2.13;;;11.30;77.10;;;;;;4226517;28;20665;-82
2022/05/06 00:24:15;;;;;;;8.07;2.60;;;11.30;77.80;;;;;;4224816;28;20222;-82
2022/05/06 00:26:17;;;;;;;6.20;2.33;;;11.20;78.60;;;;;;4229340;28;20263;-81
2022/05/06 00:28:21;;;;;;;4.37;2.23;;;11.20;79.30;;;;;;4229382;28;20866;-82
2022/05/06 00:30:25;;;;;;;4.13;2.30;;;11.20;80.80;;;;;;4233525;28;20213;-83
2022/05/06 00:32:26;;;;;;;5.53;2.77;;;11.20;81.80;;;;;;4233273;28;20727;-83
2022/05/06 00:34:28;;;;;;;4.37;2.37;;;11.20;82.90;;;;;;4227833;28;20699;-83
2022/05/06 00:36:30;;;;;;;5.67;2.80;;;11.10;84.30;;;;;;4232282;28;20320;-81
2022/05/06 00:38:32;;;;;;;4.53;2.90;;;11.10;85.40;;;;;;4226753;28;20230;-83
2022/05/06 00:40:34;;;;;;;6.70;2.70;;;11.10;86.70;;;;;;4224968;28;20219;-81
2022/05/06 00:42:36;;;;;;;4.63;2.70;;;11.00;88.30;;;;;;4235422;28;20216;-81
2022/05/06 00:44:37;;;;;;;4.53;2.40;;;11.10;89.70;;;;;;4226341;28;20212;-82
2022/05/06 00:46:41;;;;;;;4.60;2.43;;;11.00;90.30;;;;;;4231971;28;20705;-82
2022/05/06 00:48:47;;;;;;;6.37;2.80;;;10.90;90.60;;;;;;4232291;28;20217;-81
2022/05/06 00:50:50;;;;;;;3.30;2.40;;;11.20;91.00;;;;;;4227194;28;20646;-82
2022/05/06 00:52:52;;;;;;;4.57;2.93;;;10.90;91.30;;;;;;4232236;28;20209;-83
2022/05/06 00:54:54;;;;;;;6.30;2.70;;;10.90;91.80;;;;;;4233320;28;20734;-84
2022/05/06 00:56:55;;;;;;;6.93;2.93;;;10.80;92.30;;;;;;4221187;28;20225;-84
2022/05/06 00:58:57;;;;;;;4.30;2.57;;;10.80;92.20;;;;;;4223718;28;20219;-83
2022/05/06 01:00:59;;;;;;;4.77;2.60;;;10.80;92.70;;;;;;4220259;28;20210;-83
2022/05/06 01:03:02;;;;;;;8.03;2.90;;;10.80;93.00;;;;;;4214911;28;20218;-83
2022/05/06 01:05:04;;;;;;;5.10;2.60;;;10.80;93.40;;;;;;4215283;28;20213;-83
2022/05/06 01:07:06;;;;;;;4.57;2.93;;;10.70;93.80;;;;;;4221538;28;20648;-84
2022/05/06 01:09:08;;;;;;;5.07;3.07;;;10.70;94.00;;;;;;4220414;28;20213;-82
2022/05/06 01:11:14;;;;;;;3.83;2.73;;;10.70;94.40;;;;;;4211885;28;20312;-83
2022/05/06 01:13:18;;;;;;;5.63;2.60;;;10.70;94.80;;;;;;4216247;28;20249;-83
2022/05/06 01:15:22;;;;;;;4.93;2.90;;;10.60;95.10;;;;;;4217464;28;20600;-83
2022/05/06 01:17:23;;;;;;;5.13;3.10;;;10.70;95.50;;;;;;4223739;28;20596;-83
2022/05/06 01:19:26;;;;;;;6.33;2.60;;;10.60;96.10;;;;;;4223827;28;20246;-83
2022/05/06 01:21:32;;;;;;;4.83;2.70;;;10.60;96.20;;;;;;4225352;28;20218;-83
2022/05/06 01:23:37;;;;;;;5.60;2.97;;;10.50;96.60;;;;;;4226292;28;20217;-82
2022/05/06 01:25:39;;;;;;;6.70;3.00;;;10.50;97.00;;;;;;4226430;28;20217;-84
2022/05/06 01:27:45;;;;;;;5.70;3.10;;;10.50;97.40;;;;;;4226739;28;20746;-83
2022/05/06 01:29:48;;;;;;;5.20;3.13;;;10.50;97.70;;;;;;4222042;28;20220;-82
2022/05/06 01:31:50;;;;;;;9.13;3.20;;;10.60;98.30;;;;;;4219674;28;20209;-84
2022/05/06 01:33:55;;;;;;;6.13;2.77;;;10.50;98.20;;;;;;4225642;28;20693;-82
2022/05/06 01:35:59;;;;;;;7.37;3.53;;;10.40;98.70;;;;;;4227081;28;20669;-83
2022/05/06 01:38:05;;;;;;;4.60;2.90;;;10.40;99.10;;;;;;4222669;28;20224;-83
2022/05/06 01:40:11;;;;;;;9.03;3.10;;;10.60;99.60;;;;;;4215738;28;20213;-83
2022/05/06 01:42:14;;;;;;;6.07;2.93;;;10.40;99.50;;;;;;4219150;28;20307;-84
2022/05/06 01:44:19;;;;;;;6.40;3.13;;;10.30;99.70;;;;;;4215531;28;20210;-83
2022/05/06 01:46:22;;;;;;;4.77;3.00;;;10.50;99.90;;;;;;4223182;28;20213;-81
2022/05/06 01:48:25;;;;;;;8.20;3.00;;;10.30;99.90;;;;;;4221329;28;20238;-84
2022/05/06 01:50:28;;;;;;;5.23;2.90;;;10.30;99.90;;;;;;4222335;28;20211;-83
2022/05/06 01:52:32;;;;;;;5.83;3.10;;;10.30;99.90;;;;;;4220703;28;20210;-83
2022/05/06 01:54:34;;;;;;;6.67;3.03;;;10.30;99.90;;;;;;4224000;28;20232;-83
2022/05/06 01:56:37;;;;;;;7.97;3.10;;;10.20;99.90;;;;;;4217694;28;20209;-83
2022/05/06 01:58:39;;;;;;;4.30;2.80;;;10.20;99.90;;;;;;4221609;28;20604;-83
2022/05/06 02:00:40;;;;;;;7.60;3.13;;;10.20;99.90;;;;;;4219491;28;20282;-82
2022/05/06 02:02:42;;;;;;;5.93;3.00;;;10.20;99.90;;;;;;4213961;28;20233;-83
2022/05/06 02:07:03;;;;;;;5.23;2.90;;;10.10;99.90;;;;;;4219471;28;20234;-82
2022/05/06 02:09:05;;;;;;;7.23;3.23;;;10.10;99.90;;;;;;4218935;28;20217;-82
2022/05/06 02:11:07;;;;;;;5.13;3.27;;;10.00;99.90;;;;;;4219898;28;20212;-83
2022/05/06 02:13:10;;;;;;;6.93;3.17;;;10.00;99.90;;;;;;4231781;28;20216;-81
2022/05/06 02:15:12;;;;;;;5.13;2.97;;;10.00;99.90;;;;;;4229968;28;20232;-84
2022/05/06 02:17:14;;;;;;;6.10;3.00;;;10.00;99.90;;;;;;4225186;28;20233;-82
2022/05/06 02:19:16;;;;;;;5.57;2.77;;;10.00;99.90;;;;;;4227460;28;20300;-82
2022/05/06 02:21:18;;;;;;;4.03;2.90;;;10.00;99.90;;;;;;4214200;28;20228;-83
2022/05/06 02:23:20;;;;;;;6.07;3.10;;;9.90;99.90;;;;;;4219349;28;20584;-83
2022/05/06 02:25:22;;;;;;;6.67;3.20;;;10.00;99.90;;;;;;4216161;28;20209;-82
2022/05/06 02:27:23;;;;;;;7.47;3.50;;;9.90;99.90;;;;;;4220594;28;20328;-82
2022/05/06 02:29:26;;;;;;;4.87;3.03;;;9.90;99.90;;;;;;4214164;28;20217;-83
2022/05/06 02:33:46;;;;;;;7.30;3.07;;;9.80;99.90;;;;;;4211038;28;20726;-83
2022/05/06 02:35:48;;;;;;;8.70;3.63;;;9.80;99.90;;;;;;4216563;28;20217;-83
2022/05/06 02:37:50;;;;;;;5.13;3.60;;;9.80;99.90;;;;;;4221231;28;20672;-83
2022/05/06 02:39:52;;;;;;;7.57;3.20;;;9.70;99.90;;;;;;4222464;27;20264;-83
2022/05/06 02:41:54;;;;;;;5.20;3.30;;;9.70;99.90;;;;;;4227069;27;20220;-83
2022/05/06 02:43:56;;;;;;;7.47;3.40;;;9.60;99.90;;;;;;4220786;28;20219;-83
2022/05/06 02:45:59;;;;;;;6.23;3.30;;;9.60;99.90;;;;;;4218133;28;20219;-83
2022/05/06 02:48:01;;;;;;;5.50;3.33;;;9.50;99.90;;;;;;4220460;28;20297;-83
2022/05/06 02:50:04;;;;;;;4.37;3.17;;;9.50;99.90;;;;;;4213868;28;20919;-83
2022/05/06 02:52:09;;;;;;;6.00;3.50;;;9.50;99.90;;;;;;4216320;28;20208;-83
2022/05/06 02:54:10;;;;;;;6.80;3.30;;;9.40;99.90;;;;;;4216121;28;20515;-83
2022/05/06 02:56:12;;;;;;;6.27;3.13;;;9.40;99.90;;;;;;4219290;28;20252;-83
2022/05/06 02:58:14;;;;;;;6.00;3.63;;;9.40;99.90;;;;;;4218647;28;21038;-83
2022/05/06 03:00:16;;;;;;;5.77;3.47;;;9.60;99.90;;;;;;4216206;28;20478;-83
2022/05/06 03:02:19;;;;;;;6.67;3.20;;;9.30;99.90;;;;;;4221755;28;20880;-83
2022/05/06 03:04:21;;;;;;;6.47;3.97;;;9.30;99.90;;;;;;4220581;28;20211;-83
2022/05/06 03:06:23;;;;;;;5.77;3.63;;;9.60;99.90;;;;;;4220961;28;20224;-83
2022/05/06 03:08:25;;;;;;;6.27;3.63;;;9.20;99.90;;;;;;4219922;28;20494;-83
2022/05/06 03:10:27;;;;;;;6.07;3.63;;;9.20;99.90;;;;;;4218996;28;20479;-83
2022/05/06 03:12:29;;;;;;;7.50;3.70;;;9.20;99.90;;;;;;4220158;28;20468;-83
2022/05/06 03:14:31;;;;;;;5.70;3.40;;;9.20;99.90;;;;;;4222606;28;20506;-83
2022/05/06 03:16:32;;;;;;;6.13;3.57;;;9.10;99.90;;;;;;4213422;28;20462;-83
2022/05/06 03:18:36;;;;;;;6.67;3.93;;;9.10;99.90;;;;;;4217348;28;20561;-83
2022/05/06 03:20:38;;;;;;;6.60;3.47;;;9.10;99.90;;;;;;4214016;28;20467;-83
2022/05/06 03:22:42;;;;;;;9.13;3.57;;;9.10;99.90;;;;;;4213450;28;20682;-83
2022/05/06 03:24:45;;;;;;;5.87;3.80;;;9.10;99.90;;;;;;4220025;28;20810;-83
2022/05/06 03:26:46;;;;;;;5.90;3.80;;;9.10;99.90;;;;;;4219368;28;20950;-83
2022/05/06 03:28:48;;;;;;;7.03;3.70;;;9.00;99.90;;;;;;4223180;28;20462;-83
2022/05/06 03:30:50;;;;;;;8.00;3.60;;;9.10;99.90;;;;;;4221355;28;20823;-83
2022/05/06 03:32:55;;;;;;;5.93;3.47;;;9.00;99.90;;;;;;4218870;28;20896;-83
2022/05/06 03:34:58;;;;;;;7.70;3.60;;;9.00;99.90;;;;;;4217038;28;20497;-83
2022/05/06 03:37:00;;;;;;;6.20;3.33;;;9.10;99.90;;;;;;4216611;28;20821;-82
2022/05/06 03:39:03;;;;;;;8.33;3.77;;;8.90;99.90;;;;;;4219880;28;20477;-83
2022/05/06 03:41:05;;;;;;;5.57;3.63;;;8.90;99.90;;;;;;4217113;28;20471;-83
2022/05/06 03:43:06;;;;;;;6.47;3.93;;;8.90;99.90;;;;;;4217734;28;20501;-83
2022/05/06 03:45:09;;;;;;;9.60;3.80;;;8.90;99.90;;;;;;4221304;28;20454;-82
2022/05/06 03:47:11;;;;;;;7.73;4.13;;;8.90;99.90;;;;;;4213732;28;20562;-81
2022/05/06 03:49:13;;;;;;;7.83;4.20;;;8.90;99.90;;;;;;4233165;28;20465;-83
2022/05/06 03:51:21;;;;;;;7.30;4.03;;;8.90;99.90;;;;;;4226196;28;20468;-81
2022/05/06 03:53:23;;;;;;;5.83;3.97;;;8.70;99.90;;;;;;4234246;28;20465;-82
2022/05/06 03:55:25;;;;;;;6.10;3.93;;;8.70;99.90;;;;;;4228954;28;20513;-82
2022/05/06 03:57:27;;;;;;;7.20;3.90;;;8.70;99.90;;;;;;4234553;28;20493;-82
2022/05/06 03:59:30;;;;;;;6.53;4.00;;;8.60;99.90;;;;;;4229754;28;20461;-84
2022/05/06 04:01:33;;;;;;;8.43;4.00;;;8.60;99.90;;;;;;4227067;28;20463;-81
2022/05/06 04:03:35;;;;;;;6.13;3.83;;;8.60;99.90;;;;;;4229468;28;20467;-81
2022/05/06 04:05:37;;;;;;;6.20;4.07;;;8.60;99.90;;;;;;4228738;28;20467;-83
2022/05/06 04:07:40;;;;;;;8.03;4.23;;;8.50;99.90;;;;;;4217795;28;20502;-83
2022/05/06 04:09:42;;;;;;;6.60;3.90;;;8.60;99.90;;;;;;4220498;28;20469;-82
2022/05/06 04:11:43;;;;;;;6.40;3.80;;;8.60;99.90;;;;;;4217931;28;20500;-82
2022/05/06 04:13:45;;;;;;;9.37;4.43;;;8.60;99.90;;;;;;4210336;28;21035;-83
2022/05/06 04:15:47;;;;;;;7.37;3.73;;;8.60;99.90;;;;;;4220976;28;21009;-82
2022/05/06 04:17:49;;;;;;;8.20;4.17;;;8.90;99.90;;;;;;4226473;28;20492;-83
2022/05/06 04:24:27;;;;;;;7.03;4.57;;;8.50;99.90;;;;;;4170453;28;20465;-82
2022/05/06 04:26:29;;;;;;;8.03;4.47;;;8.50;99.90;;;;;;4221408;28;20499;-82
2022/05/06 04:28:31;;;;;;;10.20;4.70;;;8.50;99.90;;;;;;4222530;28;20485;-82
2022/05/06 04:30:34;;;;;;;8.50;4.93;;;8.50;99.90;;;;;;4220220;28;20540;-82
2022/05/06 04:32:35;;;;;;;9.60;4.50;;;8.50;99.90;;;;;;4221309;28;20512;-82
2022/05/06 04:34:37;;;;;;;6.17;4.60;;;8.60;99.90;;;;;;4222043;28;20453;-83
2022/05/06 04:36:39;;;;;;;8.50;4.43;;;8.60;99.90;;;;;;4222060;28;20489;-83
2022/05/06 04:38:41;;;;;;;12.70;5.07;;;8.60;99.90;;;;;;4216816;28;21313;-84
2022/05/06 04:40:44;;;;;;;7.40;4.60;;;8.60;99.90;;;;;;4227736;28;20882;-83
2022/05/06 04:42:46;;;;;;;8.47;5.00;;;8.70;99.90;;;;;;4216512;28;20484;-83
2022/05/06 04:44:47;;;;;;;16.77;5.40;;;8.60;99.90;;;;;;4220795;28;20495;-83
2022/05/06 04:46:49;;;;;;;7.83;4.63;;;8.70;99.90;;;;;;4225332;28;21125;-83
2022/05/06 04:48:51;;;;;;;9.73;4.87;;;8.70;99.90;;;;;;4227489;28;20540;-82
2022/05/06 04:50:53;;;;;;;9.67;5.20;;;8.70;99.90;;;;;;4225979;28;20461;-83
2022/05/06 04:52:55;;;;;;;10.20;4.73;;;8.50;99.90;;;;;;4227092;28;20837;-83
2022/05/06 04:54:56;;;;;;;9.87;4.23;;;8.70;99.90;;;;;;4225293;28;20476;-82
2022/05/06 04:56:59;;;;;;;6.00;4.47;;;8.70;99.90;;;;;;4227217;28;20465;-82
2022/05/06 04:59:03;;;;;;;10.27;4.77;;;8.90;99.90;;;;;;4225469;28;20461;-84
2022/05/06 05:01:05;;;;;;;9.13;4.77;;;8.70;99.90;;;;;;4225480;28;20939;-84
2022/05/06 05:03:06;;;;;;;9.20;4.60;;;8.80;99.90;;;;;;4223303;28;20469;-83
2022/05/06 05:05:09;;;;;;;9.73;5.37;;;8.80;99.90;;;;;;4222137;28;20633;-84
2022/05/06 05:07:11;;;;;;;6.87;4.70;;;8.80;99.90;;;;;;4224250;28;20486;-84
2022/05/06 05:09:13;;;;;;;11.37;4.60;;;8.80;99.90;;;;;;4224859;28;20963;-84
2022/05/06 05:11:15;;;;;;;7.63;4.70;;;8.80;99.90;;;;;;4224810;28;20484;-84
2022/05/06 05:13:18;;;;;;;8.83;4.37;;;8.80;99.90;;;;;;4226487;28;20507;-82
2022/05/06 05:15:20;;;;;;;8.30;4.50;;;8.90;99.90;;;;;;4226034;28;20497;-83
2022/05/06 05:17:22;;;;;;;6.60;4.33;;;8.80;99.90;;;;;;4233138;28;20478;-83
2022/05/06 05:19:23;;;;;;;9.17;4.77;;;8.80;99.90;;;;;;4235309;28;20513;-83
2022/05/06 05:21:25;;;;;;;7.30;4.70;;;8.70;99.90;;;;;;4226894;28;20523;-81
2022/05/06 05:23:29;;;;;;;13.37;6.00;;;8.90;99.90;;;;;;4227318;28;20458;-75
2022/05/06 05:25:30;;;;;;;11.23;6.13;;;8.90;99.90;;;;;;4222176;28;20462;-75
2022/05/06 05:27:33;;;;;;;10.83;5.90;;;8.90;99.90;;;;;;4222986;28;20505;-75
2022/05/06 05:29:36;;;;;;;8.03;5.07;;;8.90;99.90;;;;;;4224670;28;20458;-81
2022/05/06 05:31:38;;;;;;;11.27;4.90;;;8.90;99.90;;;;;;4222790;28;20505;-80
2022/05/06 05:33:42;;;;;;;6.73;4.63;;;8.80;99.90;;;;;;4216060;28;20478;-82
2022/05/06 05:35:43;;;;;;;8.10;4.90;;;9.40;99.90;;;;;;4216891;28;20552;-81
2022/05/06 05:37:45;;;;;;;9.10;5.17;;;8.90;99.90;;;;;;4224897;28;20481;-83
2022/05/06 05:39:47;;;;;;;8.07;5.03;;;8.90;99.90;;;;;;4226389;28;20450;-83
2022/05/06 05:41:48;;;;;;;9.37;4.67;;;9.00;99.90;;;;;;4226837;28;20471;-81
2022/05/06 05:48:30;;;;;;;12.00;7.20;;;9.00;99.90;;;;;;4221353;28;20495;-81
2022/05/06 05:50:32;;;;;;;12.50;6.47;;;9.10;99.90;;;;;;4219487;28;20813;-79
2022/05/06 05:52:34;;;;;;;9.17;5.47;;;9.20;99.90;;;;;;4220459;28;20462;-81
2022/05/06 05:54:36;;;;;;;10.53;6.07;;;9.10;99.90;;;;;;4215374;28;20463;-81
2022/05/06 05:56:38;;;;;;;8.57;5.67;;;9.10;99.90;;;;;;4213644;28;20498;-81
2022/05/06 05:58:40;;;;;;;10.17;6.00;;;9.20;99.90;;;;;;4208685;28;20470;-80
2022/05/06 06:00:41;;;;;;;10.37;5.70;;;9.10;99.90;;;;;;4211972;28;21036;-83
2022/05/06 06:02:45;;;;;;;11.00;5.87;;;9.20;99.90;;;;;;4217800;28;20461;-80
2022/05/06 06:04:46;;;;;;;12.07;5.77;;;9.20;99.90;;;;;;4221499;28;20530;-81
2022/05/06 06:06:49;;;;;;;10.90;5.83;;;9.20;99.90;;;;;;4220389;28;20454;-82
2022/05/06 06:08:51;;;;;;;9.60;5.67;;;9.30;99.90;;;;;;4218451;28;20578;-83
2022/05/06 06:10:53;;;;;;;11.93;6.87;;;9.30;99.90;;;;;;4220439;28;20551;-82
2022/05/06 06:12:56;;;;;;;23.07;10.50;;;9.30;99.90;;;;;;4222493;28;20515;-82
2022/05/06 06:14:58;;;;;;;21.77;11.03;;;9.30;99.90;;;;;;4218632;28;20509;-81
2022/05/06 06:17:00;;;;;;;17.63;8.77;;;9.40;99.90;;;;;;4222364;27;20549;-82
2022/05/06 06:19:03;;;;;;;16.10;7.87;;;9.40;99.90;;;;;;4219657;28;20527;-82
2022/05/06 06:21:05;;;;;;;11.00;6.53;;;9.50;99.90;;;;;;4219684;28;20511;-82
2022/05/06 06:23:07;;;;;;;10.77;6.37;;;9.50;99.90;;;;;;4217784;28;20538;-82
2022/05/06 06:25:09;;;;;;;9.77;6.13;;;9.80;99.90;;;;;;4217952;28;20458;-82
2022/05/06 06:27:11;;;;;;;9.47;5.43;;;9.60;99.90;;;;;;4213961;28;21006;-81
2022/05/06 06:29:12;;;;;;;11.77;6.13;;;9.60;99.90;;;;;;4217971;28;20546;-81
2022/05/06 06:31:14;;;;;;;13.50;6.73;;;9.70;99.90;;;;;;4216034;28;20506;-82
2022/05/06 06:33:16;;;;;;;14.93;6.50;;;9.80;99.90;;;;;;4219101;28;20519;-81
2022/05/06 06:35:19;;;;;;;13.03;6.90;;;9.80;99.90;;;;;;4220469;28;20447;-80
2022/05/06 06:37:21;;;;;;;12.87;7.13;;;9.80;99.90;;;;;;4213898;28;20997;-80
2022/05/06 06:39:23;;;;;;;9.63;6.03;;;9.90;99.90;;;;;;4219290;28;20511;-81
2022/05/06 06:41:25;;;;;;;11.97;5.60;;;9.90;99.90;;;;;;4218084;28;20640;-81
2022/05/06 06:43:27;;;;;;;8.57;5.50;;;9.90;99.90;;;;;;4216218;28;20758;-81
2022/05/06 06:45:29;;;;;;;9.80;5.27;;;10.00;99.90;;;;;;4219677;28;20238;-80
2022/05/06 06:47:31;;;;;;;10.87;5.20;;;10.00;99.90;;;;;;4221054;28;20233;-81
2022/05/06 06:49:32;;;;;;;13.13;5.77;;;10.10;99.90;;;;;;4224039;28;20204;-81
2022/05/06 06:51:36;;;;;;;12.90;6.50;;;10.10;99.90;;;;;;4215429;28;20218;-81
2022/05/06 06:53:38;;;;;;;11.63;5.83;;;10.20;99.90;;;;;;4215184;28;20213;-81
2022/05/06 06:55:39;;;;;;;8.73;5.77;;;10.20;99.90;;;;;;4217974;28;20219;-81
2022/05/06 06:57:41;;;;;;;11.07;5.30;;;10.30;99.90;;;;;;4220309;28;20494;-80
2022/05/06 06:59:43;;;;;;;13.10;5.53;;;10.50;99.90;;;;;;4213997;28;20558;-80
2022/05/06 07:01:45;;;;;;;16.20;6.80;;;10.40;99.90;;;;;;4219799;28;20995;-81
2022/05/06 07:03:46;;;;;;;13.83;5.60;;;10.50;99.90;;;;;;4218894;28;20246;-80
2022/05/06 07:12:48;;;;;;;10.30;5.87;;;10.70;99.90;;;;;;4217288;28;20223;-82
2022/05/06 07:14:50;;;;;;;9.07;5.23;;;10.80;99.90;;;;;;4212341;28;20225;-82
2022/05/06 07:16:52;;;;;;;11.00;5.33;;;10.90;99.90;;;;;;4218305;28;20225;-83
2022/05/06 07:18:54;;;;;;;10.20;5.60;;;11.40;99.90;;;;;;4212842;28;20247;-83
2022/05/06 07:20:56;;;;;;;10.87;5.60;;;11.00;99.90;;;;;;4215995;28;20679;-83
2022/05/06 07:22:58;;;;;;;9.80;5.90;;;11.00;99.90;;;;;;4219155;28;20253;-83
2022/05/06 07:25:01;;;;;;;11.80;5.50;;;11.10;99.90;;;;;;4218340;28;20214;-82
2022/05/06 07:27:03;;;;;;;10.77;5.87;;;11.10;99.90;;;;;;4213778;28;20627;-82
2022/05/06 07:29:04;;;;;;;12.77;6.00;;;11.20;99.90;;;;;;4218671;28;20655;-83
2022/05/06 07:31:06;;;;;;;9.63;5.57;;;11.30;99.90;;;;;;4213949;28;20218;-82
2022/05/06 07:33:08;;;;;;;11.97;5.70;;;11.30;99.90;;;;;;4214700;28;20286;-83
2022/05/06 07:35:10;;;;;;;10.73;5.80;;;11.40;99.90;;;;;;4218786;28;20219;-82
2022/05/06 07:37:12;;;;;;;11.57;5.60;;;11.40;99.90;;;;;;4218410;28;20242;-82
2022/05/06 07:39:16;;;;;;;9.60;5.30;;;11.50;99.90;;;;;;4219532;28;20674;-82
2022/05/06 07:41:20;;;;;;;12.23;5.13;;;11.50;99.90;;;;;;4216210;28;20300;-82
2022/05/06 07:43:21;;;;;;;8.13;4.90;;;11.60;99.90;;;;;;4231328;28;20219;-82
2022/05/06 07:45:23;;;;;;;7.67;4.90;;;11.70;99.90;;;;;;4229615;28;20575;-83
2022/05/06 07:47:25;;;;;;;9.53;4.70;;;11.80;99.90;;;;;;4225045;28;20232;-83
2022/05/06 07:49:27;;;;;;;10.83;4.77;;;12.20;99.90;;;;;;4229857;28;20218;-83
2022/05/06 07:51:29;;;;;;;8.93;4.17;;;11.90;99.90;;;;;;4230017;28;20217;-82
2022/05/06 07:53:31;;;;;;;8.37;4.37;;;11.80;99.90;;;;;;4232612;28;20256;-82
2022/05/06 07:55:35;;;;;;;7.10;4.20;;;12.00;99.90;;;;;;4231793;28;20210;-82
2022/05/06 07:57:39;;;;;;;7.93;4.57;;;12.10;99.90;;;;;;4230511;28;20231;-83
2022/05/06 07:59:40;;;;;;;8.47;4.30;;;12.10;99.90;;;;;;4228445;28;20203;-83
2022/05/06 08:06:21;;;;;;;7.10;4.00;;;12.30;99.90;;;;;;4226747;28;20221;-83
2022/05/06 08:08:22;;;;;;;9.90;3.83;;;12.40;99.90;;;;;;4207878;22;20592;-78
2022/05/06 08:10:24;;;;;;;8.87;4.40;;;12.40;99.90;;;;;;4160632;28;20233;-78
2022/05/06 08:12:26;;;;;;;7.67;4.60;;;12.50;99.90;;;;;;4163076;28;20303;-78
2022/05/06 08:14:30;;;;;;;8.40;4.57;;;12.60;99.90;;;;;;4167708;28;20245;-78
2022/05/06 08:16:32;;;;;;;9.57;4.70;;;12.70;99.90;;;;;;4162642;28;20229;-78
2022/05/06 08:18:34;;;;;;;7.90;3.97;;;12.80;99.90;;;;;;4174016;28;20706;-78
2022/05/06 08:20:35;;;;;;;6.90;3.87;;;12.90;99.90;;;;;;4178387;28;20213;-78
2022/05/06 08:22:38;;;;;;;6.10;3.43;;;13.00;99.90;;;;;;4183474;28;20451;-78
2022/05/06 08:24:39;;;;;;;6.60;3.37;;;13.00;99.90;;;;;;4183564;28;20226;-78
2022/05/06 08:26:43;;;;;;;6.53;4.20;;;13.20;99.90;;;;;;4182577;28;20205;-78
2022/05/06 08:28:45;;;;;;;8.47;3.93;;;13.20;99.90;;;;;;4187055;28;20238;-78
2022/05/06 08:30:49;;;;;;;9.63;3.70;;;13.30;99.90;;;;;;4183383;28;20239;-78
2022/05/06 08:32:52;;;;;;;6.30;3.87;;;13.40;99.90;;;;;;4182545;28;20217;-78
2022/05/06 08:34:53;;;;;;;4.73;3.37;;;13.40;99.90;;;;;;4182134;28;20814;-78
2022/05/06 08:36:56;;;;;;;5.37;3.57;;;13.50;99.90;;;;;;4185900;28;20332;-78
2022/05/06 08:38:58;;;;;;;4.87;3.30;;;13.60;99.90;;;;;;4191324;28;20257;-78
2022/05/06 08:41:01;;;;;;;9.23;3.80;;;13.60;99.90;;;;;;4188889;28;20803;-81
2022/05/06 08:43:04;;;;;;;9.50;3.77;;;13.80;99.90;;;;;;4181602;28;20224;-79
2022/05/06 08:52:11;;;;;;;7.73;4.10;;;14.00;99.90;;;;;;4189057;28;20212;-79
2022/05/06 08:54:13;;;;;;;6.70;3.83;;;14.10;99.90;;;;;;4178744;28;20248;-79
2022/05/06 08:56:15;;;;;;;7.63;4.33;;;14.20;99.90;;;;;;4185489;28;20214;-79
2022/05/06 08:58:17;;;;;;;5.90;3.63;;;14.30;99.90;;;;;;4179769;28;20244;-79
2022/05/06 09:00:23;;;;;;;5.53;4.20;;;14.40;99.90;;;;;;4184442;28;20226;-79
2022/05/06 09:02:27;;;;;;;6.50;3.60;;;14.40;99.90;;;;;;4185966;28;20218;-79
2022/05/06 09:04:29;;;;;;;5.43;3.53;;;14.50;99.90;;;;;;4185947;28;20225;-79
2022/05/06 09:06:32;;;;;;;5.70;3.47;;;14.60;99.90;;;;;;4189061;28;20206;-80
2022/05/06 09:08:38;;;;;;;6.53;3.53;;;14.60;99.90;;;;;;4188303;28;20245;-79
2022/05/06 09:10:40;;;;;;;6.23;3.40;;;14.80;99.90;;;;;;4189827;28;20317;-79
2022/05/06 09:12:44;;;;;;;6.50;3.43;;;14.90;99.90;;;;;;4189652;28;20218;-79
2022/05/06 09:17:24;;;;;;;6.13;3.20;;;15.10;99.90;;;;;;4190496;28;20521;-79
2022/05/06 09:19:29;;;;;;;6.57;3.23;;;15.10;99.90;;;;;;4190460;28;20206;-80
2022/05/06 09:21:31;;;;;;;8.27;3.30;;;15.30;99.90;;;;;;4189091;28;20485;-80
2022/05/06 09:23:33;;;;;;;7.70;2.90;;;15.50;99.60;;;;;;4185913;28;20242;-80
2022/05/06 09:25:39;;;;;;;3.80;2.63;;;15.60;98.80;;;;;;4190350;28;20891;-80
2022/05/06 09:27:41;;;;;;;6.93;2.97;;;15.70;98.40;;;;;;4185761;28;20240;-79
2022/05/06 09:29:44;;;;;;;5.57;3.27;;;15.80;97.70;;;;;;4185901;28;20205;-79
2022/05/06 09:31:45;;;;;;;5.60;2.97;;;16.00;95.50;;;;;;4180611;28;20415;-79
2022/05/06 09:33:47;;;;;;;4.37;2.50;;;16.10;95.40;;;;;;4185462;28;20224;-79
2022/05/06 09:35:50;;;;;;;6.13;3.20;;;16.20;93.80;;;;;;4188564;28;20346;-80
2022/05/06 09:37:52;;;;;;;5.30;2.73;;;16.20;94.20;;;;;;4186027;28;20237;-80
2022/05/06 09:40:02;;;;;;;5.57;2.83;;;16.30;94.40;;;;;;4188492;28;20306;-79
2022/05/06 09:42:05;;;;;;;4.07;2.50;;;16.40;92.20;;;;;;4188550;28;20223;-80
2022/05/06 09:44:08;;;;;;;6.60;3.07;;;16.50;90.80;;;;;;4183016;28;20222;-79
2022/05/06 09:46:20;;;;;;;8.13;3.30;;;16.50;87.30;;;;;;4185732;28;20603;-80
2022/05/06 09:48:22;;;;;;;9.93;3.50;;;16.50;90.70;;;;;;4183667;28;20237;-78
2022/05/06 09:50:32;;;;;;;5.30;3.10;;;16.60;90.20;;;;;;4190753;28;20293;-80
2022/05/06 09:52:36;;;;;;;4.43;2.50;;;16.70;86.80;;;;;;4187774;28;20221;-81
2022/05/06 09:54:41;;;;;;;5.17;2.50;;;16.80;81.90;;;;;;4189940;28;20955;-81
2022/05/06 09:56:44;;;;;;;3.47;2.40;;;16.80;79.50;;;;;;4188043;28;20796;-81
2022/05/06 09:58:46;;;;;;;5.10;2.60;;;16.90;81.40;;;;;;4186234;28;20777;-81
2022/05/06 10:00:48;;;;;;;3.63;2.60;;;17.00;78.70;;;;;;4182824;28;20226;-79
2022/05/06 10:02:53;;;;;;;4.27;2.07;;;17.10;81.50;;;;;;4181989;28;20712;-80
2022/05/06 10:04:55;;;;;;;5.07;2.57;;;17.20;82.80;;;;;;4181548;28;20223;-80
2022/05/06 10:07:00;;;;;;;5.47;2.40;;;17.30;77.40;;;;;;4187768;28;20207;-81
2022/05/06 10:09:03;;;;;;;5.93;2.67;;;17.50;77.00;;;;;;4185006;28;20241;-81
2022/05/06 10:11:12;;;;;;;3.13;2.20;;;17.70;73.40;;;;;;4184157;28;20239;-81
2022/05/06 10:13:22;;;;;;;6.40;2.70;;;17.90;70.90;;;;;;4181861;28;20237;-80
2022/05/06 10:15:27;;;;;;;5.67;3.50;;;18.10;66.60;;;;;;4184196;28;20217;-81
2022/05/06 10:17:52;;;;;;;9.80;3.33;;;18.30;61.70;;;;;;4182487;28;20998;-80
2022/05/06 10:19:54;;;;;;;6.10;2.90;;;18.50;59.30;;;;;;4184793;28;20222;-81
2022/05/06 10:21:56;;;;;;;6.30;3.00;;;18.70;57.30;;;;;;4184375;28;20244;-79
2022/05/06 10:24:13;;;;;;;4.97;2.50;;;18.80;56.50;;;;;;4196718;28;20227;-79
2022/05/06 10:26:45;;;;;;;4.87;2.80;;;18.80;55.90;;;;;;4194509;28;20204;-80
2022/05/06 10:34:11;;;;;;;5.43;2.37;;;19.00;54.80;;;;;;4191245;28;20242;-80
2022/05/06 10:36:41;;;;;;;3.03;2.30;;;19.00;53.70;;;;;;4188508;28;20285;-79
2022/05/06 10:38:50;;;;;;;4.93;2.23;;;19.00;53.20;;;;;;4190421;28;20238;-78
2022/05/06 10:40:57;;;;;;;4.43;2.40;;;19.00;53.20;;;;;;4187223;28;20216;-80
2022/05/06 10:42:59;;;;;;;4.83;2.00;;;19.00;53.50;;;;;;4190902;28;20569;-79
2022/05/06 10:45:23;;;;;;;3.20;1.77;;;19.00;54.00;;;;;;4191405;28;20210;-78
2022/05/06 10:47:50;;;;;;;4.07;1.60;;;19.20;53.90;;;;;;4193377;28;20219;-78
2022/05/06 10:49:52;;;;;;;4.87;2.03;;;19.40;53.60;;;;;;4188580;28;20220;-78
2022/05/06 10:52:14;;;;;;;4.40;1.70;;;19.50;53.00;;;;;;4186979;28;20270;-78
2022/05/06 10:54:17;;;;;;;6.57;2.00;;;19.80;51.90;;;;;;4185963;28;20209;-79
2022/05/06 10:56:23;;;;;;;9.57;3.27;;;20.00;50.80;;;;;;4187625;28;20612;-81
2022/05/06 10:58:28;;;;;;;5.23;2.33;;;20.10;48.80;;;;;;4184210;28;20263;-80
2022/05/06 11:00:33;;;;;;;4.73;1.90;;;20.10;48.00;;;;;;4183173;28;20220;-83
2022/05/06 11:02:37;;;;;;;3.57;1.53;;;20.20;48.10;;;;;;4188471;28;20216;-79
2022/05/06 11:04:41;;;;;;;3.30;1.60;;;20.30;48.00;;;;;;4187355;28;20209;-79
2022/05/06 11:06:43;;;;;;;2.87;1.70;;;20.30;46.90;;;;;;4184048;28;20210;-79
2022/05/06 11:08:44;;;;;;;4.37;1.97;;;20.60;46.30;;;;;;4186749;28;20332;-79
2022/05/06 11:10:46;;;;;;;3.07;1.70;;;20.30;45.20;;;;;;4187967;28;20247;-79
2022/05/06 11:12:51;;;;;;;5.37;1.90;;;20.30;45.40;;;;;;4186995;28;20887;-79
2022/05/06 11:14:55;;;;;;;3.07;1.67;;;20.30;45.00;;;;;;4186582;28;20267;-78
2022/05/06 11:17:14;;;;;;;3.20;1.57;;;20.30;44.70;;;;;;4185862;28;20225;-79
2022/05/06 11:19:35;;;;;;;4.40;1.50;;;20.40;45.10;;;;;;4187782;28;20241;-79
2022/05/06 11:21:37;;;;;;;1.90;1.40;;;20.60;45.10;;;;;;4184370;28;20683;-79
2022/05/06 11:23:39;;;;;;;2.67;1.30;;;20.70;45.10;;;;;;4186822;28;20209;-79